sensor_id;sensor_type;location;lat;lon;timestamp;P1;durP1;ratioP1;P2;durP2;ratioP2
49071;SDS011;74284;52.610;10.236;2024-01-10T00:01:45;30.93;;;17.97;;
49071;SDS011;74284;52.610;10.236;2024-01-10T00:04:10;27.60;;;17.58;;
49071;SDS011;74284;52.610;10.236;2024-01-10T00:06:36;31.73;;;18.30;;
49071;SDS011;74284;52.610;10.236;2024-01-10T00:11:27;31.23;;;18.70;;
49071;SDS011;74284;52.610;10.236;2024-01-10T00:13:52;31.40;;;19.55;;
49071;SDS011;74284;52.610;10.236;2024-01-10T00:16:20;36.87;;;19.40;;
49071;SDS011;74284;52.610;10.236;2024-01-10T00:18:45;38.38;;;18.20;;
49071;SDS011;74284;52.610;10.236;2024-01-10T00:21:11;31.85;;;18.77;;
49071;SDS011;74284;52.610;10.236;2024-01-10T00:23:36;32.72;;;18.98;;
49071;SDS011;74284;52.610;10.236;2024-01-10T00:26:01;34.50;;;19.38;;
49071;SDS011;74284;52.610;10.236;2024-01-10T00:30:52;34.57;;;18.30;;
49071;SDS011;74284;52.610;10.236;2024-01-10T00:33:17;34.22;;;19.45;;
49071;SDS011;74284;52.610;10.236;2024-01-10T00:35:43;31.10;;;18.67;;
49071;SDS011;74284;52.610;10.236;2024-01-10T00:38:08;31.85;;;18.00;;
49071;SDS011;74284;52.610;10.236;2024-01-10T00:40:34;27.75;;;16.77;;
49071;SDS011;74284;52.610;10.236;2024-01-10T00:42:59;29.88;;;16.45;;
49071;SDS011;74284;52.610;10.236;2024-01-10T00:45:25;35.95;;;18.83;;
49071;SDS011;74284;52.610;10.236;2024-01-10T00:47:50;27.05;;;16.80;;
49071;SDS011;74284;52.610;10.236;2024-01-10T00:50:15;34.28;;;17.58;;
49071;SDS011;74284;52.610;10.236;2024-01-10T00:52:41;32.03;;;16.95;;
49071;SDS011;74284;52.610;10.236;2024-01-10T00:57:33;27.13;;;15.40;;
49071;SDS011;74284;52.610;10.236;2024-01-10T00:59:58;25.58;;;14.90;;
49071;SDS011;74284;52.610;10.236;2024-01-10T01:02:23;26.77;;;14.70;;
49071;SDS011;74284;52.610;10.236;2024-01-10T01:04:49;30.10;;;16.02;;
49071;SDS011;74284;52.610;10.236;2024-01-10T01:07:14;27.05;;;15.50;;
49071;SDS011;74284;52.610;10.236;2024-01-10T01:09:39;26.60;;;15.13;;
49071;SDS011;74284;52.610;10.236;2024-01-10T01:12:05;30.23;;;16.17;;
49071;SDS011;74284;52.610;10.236;2024-01-10T01:16:55;25.70;;;14.57;;
49071;SDS011;74284;52.610;10.236;2024-01-10T01:19:21;26.52;;;14.70;;
49071;SDS011;74284;52.610;10.236;2024-01-10T01:21:46;25.98;;;14.85;;
49071;SDS011;74284;52.610;10.236;2024-01-10T01:24:12;23.90;;;14.48;;
49071;SDS011;74284;52.610;10.236;2024-01-10T01:26:37;24.45;;;15.38;;
49071;SDS011;74284;52.610;10.236;2024-01-10T01:31:27;23.43;;;14.03;;
49071;SDS011;74284;52.610;10.236;2024-01-10T01:33:53;25.48;;;14.27;;
49071;SDS011;74284;52.610;10.236;2024-01-10T01:38:43;26.87;;;14.30;;
49071;SDS011;74284;52.610;10.236;2024-01-10T01:41:09;27.83;;;14.43;;
49071;SDS011;74284;52.610;10.236;2024-01-10T01:46:00;26.07;;;15.23;;
49071;SDS011;74284;52.610;10.236;2024-01-10T01:48:26;23.60;;;14.60;;
49071;SDS011;74284;52.610;10.236;2024-01-10T01:53:21;25.00;;;14.77;;
49071;SDS011;74284;52.610;10.236;2024-01-10T01:55:47;22.08;;;13.40;;
49071;SDS011;74284;52.610;10.236;2024-01-10T01:58:13;23.50;;;14.03;;
49071;SDS011;74284;52.610;10.236;2024-01-10T02:00:39;23.25;;;14.32;;
49071;SDS011;74284;52.610;10.236;2024-01-10T02:03:05;21.60;;;14.27;;
49071;SDS011;74284;52.610;10.236;2024-01-10T02:05:31;23.73;;;14.40;;
49071;SDS011;74284;52.610;10.236;2024-01-10T02:07:57;25.95;;;15.02;;
49071;SDS011;74284;52.610;10.236;2024-01-10T02:12:48;24.83;;;14.43;;
49071;SDS011;74284;52.610;10.236;2024-01-10T02:15:14;22.30;;;12.65;;
49071;SDS011;74284;52.610;10.236;2024-01-10T02:17:40;21.30;;;13.25;;
49071;SDS011;74284;52.610;10.236;2024-01-10T02:20:09;21.08;;;12.35;;
49071;SDS011;74284;52.610;10.236;2024-01-10T02:22:37;24.23;;;13.57;;
49071;SDS011;74284;52.610;10.236;2024-01-10T02:25:04;19.45;;;12.00;;
49071;SDS011;74284;52.610;10.236;2024-01-10T02:27:31;20.50;;;11.90;;
49071;SDS011;74284;52.610;10.236;2024-01-10T02:29:57;24.43;;;12.83;;
49071;SDS011;74284;52.610;10.236;2024-01-10T02:32:24;21.97;;;11.70;;
49071;SDS011;74284;52.610;10.236;2024-01-10T02:34:49;22.67;;;12.43;;
49071;SDS011;74284;52.610;10.236;2024-01-10T02:39:40;22.80;;;11.90;;
49071;SDS011;74284;52.610;10.236;2024-01-10T02:42:05;20.27;;;11.43;;
49071;SDS011;74284;52.610;10.236;2024-01-10T02:46:56;21.10;;;10.80;;
49071;SDS011;74284;52.610;10.236;2024-01-10T02:49:21;17.50;;;10.23;;
49071;SDS011;74284;52.610;10.236;2024-01-10T02:54:11;20.43;;;11.50;;
49071;SDS011;74284;52.610;10.236;2024-01-10T02:59:02;20.53;;;11.67;;
49071;SDS011;74284;52.610;10.236;2024-01-10T03:01:27;19.85;;;11.52;;
49071;SDS011;74284;52.610;10.236;2024-01-10T03:06:18;20.17;;;10.10;;
49071;SDS011;74284;52.610;10.236;2024-01-10T03:11:09;20.13;;;11.60;;
49071;SDS011;74284;52.610;10.236;2024-01-10T03:13:34;18.38;;;9.98;;
49071;SDS011;74284;52.610;10.236;2024-01-10T03:18:24;18.80;;;11.23;;
49071;SDS011;74284;52.610;10.236;2024-01-10T03:20:50;18.13;;;10.10;;
49071;SDS011;74284;52.610;10.236;2024-01-10T03:23:15;18.80;;;10.77;;
49071;SDS011;74284;52.610;10.236;2024-01-10T03:28:05;16.43;;;9.50;;
49071;SDS011;74284;52.610;10.236;2024-01-10T03:30:31;19.13;;;10.27;;
49071;SDS011;74284;52.610;10.236;2024-01-10T03:35:21;18.87;;;10.47;;
49071;SDS011;74284;52.610;10.236;2024-01-10T03:37:46;19.73;;;10.73;;
49071;SDS011;74284;52.610;10.236;2024-01-10T03:42:37;16.00;;;9.90;;
49071;SDS011;74284;52.610;10.236;2024-01-10T03:47:28;17.63;;;9.43;;
49071;SDS011;74284;52.610;10.236;2024-01-10T03:52:19;18.17;;;9.73;;
49071;SDS011;74284;52.610;10.236;2024-01-10T03:54:44;16.77;;;10.13;;
49071;SDS011;74284;52.610;10.236;2024-01-10T03:59:34;21.03;;;10.60;;
49071;SDS011;74284;52.610;10.236;2024-01-10T04:02:00;17.50;;;9.95;;
49071;SDS011;74284;52.610;10.236;2024-01-10T04:04:26;17.77;;;10.23;;
49071;SDS011;74284;52.610;10.236;2024-01-10T04:09:17;19.97;;;9.70;;
49071;SDS011;74284;52.610;10.236;2024-01-10T04:11:42;19.17;;;10.05;;
49071;SDS011;74284;52.610;10.236;2024-01-10T04:16:33;17.27;;;10.07;;
49071;SDS011;74284;52.610;10.236;2024-01-10T04:21:23;20.10;;;10.77;;
49071;SDS011;74284;52.610;10.236;2024-01-10T04:26:16;20.73;;;11.43;;
49071;SDS011;74284;52.610;10.236;2024-01-10T04:28:42;18.80;;;11.00;;
49071;SDS011;74284;52.610;10.236;2024-01-10T04:33:32;23.03;;;11.83;;
49071;SDS011;74284;52.610;10.236;2024-01-10T04:38:23;21.27;;;11.43;;
49071;SDS011;74284;52.610;10.236;2024-01-10T04:40:51;23.17;;;13.07;;
49071;SDS011;74284;52.610;10.236;2024-01-10T04:45:41;24.60;;;14.23;;
49071;SDS011;74284;52.610;10.236;2024-01-10T04:48:07;22.15;;;12.98;;
49071;SDS011;74284;52.610;10.236;2024-01-10T04:52:57;24.30;;;13.07;;
49071;SDS011;74284;52.610;10.236;2024-01-10T04:55:23;24.80;;;13.38;;
49071;SDS011;74284;52.610;10.236;2024-01-10T05:00:13;23.07;;;13.37;;
49071;SDS011;74284;52.610;10.236;2024-01-10T05:02:39;25.48;;;14.05;;
49071;SDS011;74284;52.610;10.236;2024-01-10T05:05:04;26.08;;;14.43;;
49071;SDS011;74284;52.610;10.236;2024-01-10T05:09:55;26.83;;;14.97;;
49071;SDS011;74284;52.610;10.236;2024-01-10T05:14:46;27.80;;;14.00;;
49071;SDS011;74284;52.610;10.236;2024-01-10T05:19:36;24.50;;;14.37;;
49071;SDS011;74284;52.610;10.236;2024-01-10T05:24:27;26.90;;;13.33;;
49071;SDS011;74284;52.610;10.236;2024-01-10T05:29:18;25.83;;;14.17;;
49071;SDS011;74284;52.610;10.236;2024-01-10T05:31:44;27.60;;;13.93;;
49071;SDS011;74284;52.610;10.236;2024-01-10T05:34:11;27.83;;;14.40;;
49071;SDS011;74284;52.610;10.236;2024-01-10T05:39:01;24.23;;;13.10;;
49071;SDS011;74284;52.610;10.236;2024-01-10T05:41:27;23.15;;;12.57;;
49071;SDS011;74284;52.610;10.236;2024-01-10T05:46:17;24.97;;;12.90;;
49071;SDS011;74284;52.610;10.236;2024-01-10T05:48:44;21.80;;;12.67;;
49071;SDS011;74284;52.610;10.236;2024-01-10T05:51:11;24.10;;;12.87;;
49071;SDS011;74284;52.610;10.236;2024-01-10T05:56:02;27.83;;;14.57;;
49071;SDS011;74284;52.610;10.236;2024-01-10T06:00:53;29.57;;;14.87;;
49071;SDS011;74284;52.610;10.236;2024-01-10T06:03:20;28.10;;;14.13;;
49071;SDS011;74284;52.610;10.236;2024-01-10T06:08:10;29.20;;;15.37;;
49071;SDS011;74284;52.610;10.236;2024-01-10T06:13:01;27.90;;;14.37;;
49071;SDS011;74284;52.610;10.236;2024-01-10T06:15:26;27.92;;;15.18;;
49071;SDS011;74284;52.610;10.236;2024-01-10T06:20:17;29.17;;;16.03;;
49071;SDS011;74284;52.610;10.236;2024-01-10T06:22:43;29.38;;;15.38;;
49071;SDS011;74284;52.610;10.236;2024-01-10T06:27:34;28.87;;;16.07;;
49071;SDS011;74284;52.610;10.236;2024-01-10T06:32:24;27.90;;;15.10;;
49071;SDS011;74284;52.610;10.236;2024-01-10T06:37:16;30.33;;;16.00;;
49071;SDS011;74284;52.610;10.236;2024-01-10T06:42:06;28.97;;;15.77;;
49071;SDS011;74284;52.610;10.236;2024-01-10T06:44:33;29.17;;;15.43;;
49071;SDS011;74284;52.610;10.236;2024-01-10T06:49:24;30.43;;;16.23;;
49071;SDS011;74284;52.610;10.236;2024-01-10T06:54:14;27.90;;;15.13;;
49071;SDS011;74284;52.610;10.236;2024-01-10T06:56:40;31.88;;;16.33;;
49071;SDS011;74284;52.610;10.236;2024-01-10T07:01:31;29.93;;;16.40;;
49071;SDS011;74284;52.610;10.236;2024-01-10T07:06:22;31.47;;;17.37;;
49071;SDS011;74284;52.610;10.236;2024-01-10T07:08:48;31.00;;;17.02;;
49071;SDS011;74284;52.610;10.236;2024-01-10T07:11:18;31.77;;;17.67;;
49071;SDS011;74284;52.610;10.236;2024-01-10T07:13:45;30.67;;;15.97;;
49071;SDS011;74284;52.610;10.236;2024-01-10T07:18:36;29.37;;;16.57;;
49071;SDS011;74284;52.610;10.236;2024-01-10T07:23:27;30.53;;;16.93;;
49071;SDS011;74284;52.610;10.236;2024-01-10T07:25:52;39.85;;;19.05;;
49071;SDS011;74284;52.610;10.236;2024-01-10T07:30:44;36.03;;;18.03;;
49071;SDS011;74284;52.610;10.236;2024-01-10T07:35:35;32.40;;;16.77;;
49071;SDS011;74284;52.610;10.236;2024-01-10T07:38:01;34.42;;;18.48;;
49071;SDS011;74284;52.610;10.236;2024-01-10T07:42:52;37.10;;;17.70;;
49071;SDS011;74284;52.610;10.236;2024-01-10T07:45:17;37.17;;;17.83;;
49071;SDS011;74284;52.610;10.236;2024-01-10T07:50:08;33.20;;;17.40;;
49071;SDS011;74284;52.610;10.236;2024-01-10T07:52:35;38.03;;;18.83;;
49071;SDS011;74284;52.610;10.236;2024-01-10T07:57:26;36.40;;;18.67;;
49071;SDS011;74284;52.610;10.236;2024-01-10T08:02:20;37.83;;;18.23;;
49071;SDS011;74284;52.610;10.236;2024-01-10T08:07:11;40.23;;;18.33;;
49071;SDS011;74284;52.610;10.236;2024-01-10T08:09:37;35.55;;;18.58;;
49071;SDS011;74284;52.610;10.236;2024-01-10T08:14:28;38.63;;;19.33;;
49071;SDS011;74284;52.610;10.236;2024-01-10T08:19:19;33.23;;;18.70;;
49071;SDS011;74284;52.610;10.236;2024-01-10T08:24:10;37.40;;;19.30;;
49071;SDS011;74284;52.610;10.236;2024-01-10T08:29:02;36.83;;;19.37;;
49071;SDS011;74284;52.610;10.236;2024-01-10T08:33:54;35.47;;;18.67;;
49071;SDS011;74284;52.610;10.236;2024-01-10T08:38:44;37.07;;;18.07;;
49071;SDS011;74284;52.610;10.236;2024-01-10T08:43:39;34.43;;;18.33;;
49071;SDS011;74284;52.610;10.236;2024-01-10T08:46:05;36.47;;;19.73;;
49071;SDS011;74284;52.610;10.236;2024-01-10T08:48:31;34.75;;;19.67;;
49071;SDS011;74284;52.610;10.236;2024-01-10T08:50:57;33.08;;;17.88;;
49071;SDS011;74284;52.610;10.236;2024-01-10T08:55:47;34.43;;;18.83;;
49071;SDS011;74284;52.610;10.236;2024-01-10T09:00:38;34.60;;;16.87;;
49071;SDS011;74284;52.610;10.236;2024-01-10T09:03:03;34.28;;;17.75;;
49071;SDS011;74284;52.610;10.236;2024-01-10T09:05:29;32.63;;;18.17;;
49071;SDS011;74284;52.610;10.236;2024-01-10T09:07:55;32.78;;;16.65;;
49071;SDS011;74284;52.610;10.236;2024-01-10T09:12:48;32.00;;;17.52;;
49071;SDS011;74284;52.610;10.236;2024-01-10T09:17:42;32.23;;;16.80;;
49071;SDS011;74284;52.610;10.236;2024-01-10T09:20:08;34.00;;;18.73;;
49071;SDS011;74284;52.610;10.236;2024-01-10T09:22:34;34.70;;;18.35;;
49071;SDS011;74284;52.610;10.236;2024-01-10T09:24:59;31.45;;;18.15;;
49071;SDS011;74284;52.610;10.236;2024-01-10T09:27:28;29.87;;;16.07;;
49071;SDS011;74284;52.610;10.236;2024-01-10T09:29:55;37.63;;;18.13;;
49071;SDS011;74284;52.610;10.236;2024-01-10T09:32:20;33.30;;;16.25;;
49071;SDS011;74284;52.610;10.236;2024-01-10T09:37:10;33.00;;;16.97;;
49071;SDS011;74284;52.610;10.236;2024-01-10T09:39:36;35.65;;;17.15;;
49071;SDS011;74284;52.610;10.236;2024-01-10T09:42:01;33.03;;;16.58;;
49071;SDS011;74284;52.610;10.236;2024-01-10T09:44:26;31.48;;;16.83;;
49071;SDS011;74284;52.610;10.236;2024-01-10T09:46:53;31.33;;;17.65;;
49071;SDS011;74284;52.610;10.236;2024-01-10T09:49:19;35.37;;;18.40;;
49071;SDS011;74284;52.610;10.236;2024-01-10T09:51:50;30.83;;;17.80;;
49071;SDS011;74284;52.610;10.236;2024-01-10T09:54:22;32.47;;;19.10;;
49071;SDS011;74284;52.610;10.236;2024-01-10T09:56:50;29.47;;;17.43;;
49071;SDS011;74284;52.610;10.236;2024-01-10T09:59:16;38.03;;;19.17;;
49071;SDS011;74284;52.610;10.236;2024-01-10T10:01:42;33.97;;;17.80;;
49071;SDS011;74284;52.610;10.236;2024-01-10T10:04:09;30.63;;;15.47;;
49071;SDS011;74284;52.610;10.236;2024-01-10T10:06:37;39.47;;;19.90;;
49071;SDS011;74284;52.610;10.236;2024-01-10T10:09:02;33.42;;;18.13;;
49071;SDS011;74284;52.610;10.236;2024-01-10T10:11:27;32.67;;;16.33;;
49071;SDS011;74284;52.610;10.236;2024-01-10T10:13:53;37.70;;;19.10;;
49071;SDS011;74284;52.610;10.236;2024-01-10T10:16:24;33.00;;;17.02;;
49071;SDS011;74284;52.610;10.236;2024-01-10T10:18:54;30.95;;;17.25;;
49071;SDS011;74284;52.610;10.236;2024-01-10T10:21:26;33.30;;;18.07;;
49071;SDS011;74284;52.610;10.236;2024-01-10T10:23:59;27.58;;;15.77;;
49071;SDS011;74284;52.610;10.236;2024-01-10T10:26:26;33.53;;;18.23;;
49071;SDS011;74284;52.610;10.236;2024-01-10T10:28:52;31.13;;;17.42;;
49071;SDS011;74284;52.610;10.236;2024-01-10T10:31:18;32.92;;;17.23;;
49071;SDS011;74284;52.610;10.236;2024-01-10T10:33:44;31.27;;;16.90;;
49071;SDS011;74284;52.610;10.236;2024-01-10T10:36:10;31.55;;;17.02;;
49071;SDS011;74284;52.610;10.236;2024-01-10T10:38:36;30.63;;;15.43;;
49071;SDS011;74284;52.610;10.236;2024-01-10T10:41:04;29.63;;;15.90;;
49071;SDS011;74284;52.610;10.236;2024-01-10T10:43:31;28.50;;;16.17;;
49071;SDS011;74284;52.610;10.236;2024-01-10T10:46:00;28.90;;;15.85;;
49071;SDS011;74284;52.610;10.236;2024-01-10T10:48:26;27.23;;;14.57;;
49071;SDS011;74284;52.610;10.236;2024-01-10T10:51:09;27.50;;;14.73;;
49071;SDS011;74284;52.610;10.236;2024-01-10T10:53:39;28.25;;;14.52;;
49071;SDS011;74284;52.610;10.236;2024-01-10T10:56:08;28.15;;;15.40;;
49071;SDS011;74284;52.610;10.236;2024-01-10T10:58:35;30.15;;;15.90;;
49071;SDS011;74284;52.610;10.236;2024-01-10T11:01:10;32.47;;;15.65;;
49071;SDS011;74284;52.610;10.236;2024-01-10T11:03:38;33.50;;;16.80;;
49071;SDS011;74284;52.610;10.236;2024-01-10T11:06:09;42.33;;;19.10;;
49071;SDS011;74284;52.610;10.236;2024-01-10T11:08:35;31.75;;;17.45;;
49071;SDS011;74284;52.610;10.236;2024-01-10T11:11:04;33.15;;;17.40;;
49071;SDS011;74284;52.610;10.236;2024-01-10T11:16:47;30.52;;;17.35;;
49071;SDS011;74284;52.610;10.236;2024-01-10T11:19:43;33.10;;;14.77;;
49071;SDS011;74284;52.610;10.236;2024-01-10T11:25:00;31.58;;;15.43;;
49071;SDS011;74284;52.610;10.236;2024-01-10T11:27:26;31.75;;;16.13;;
49071;SDS011;74284;52.610;10.236;2024-01-10T11:29:51;35.83;;;17.45;;
49071;SDS011;74284;52.610;10.236;2024-01-10T11:32:17;30.88;;;16.15;;
49071;SDS011;74284;52.610;10.236;2024-01-10T11:37:18;33.40;;;17.90;;
49071;SDS011;74284;52.610;10.236;2024-01-10T11:39:44;27.48;;;15.88;;
49071;SDS011;74284;52.610;10.236;2024-01-10T11:42:09;28.25;;;15.57;;
49071;SDS011;74284;52.610;10.236;2024-01-10T11:44:36;28.73;;;15.82;;
49071;SDS011;74284;52.610;10.236;2024-01-10T11:47:13;27.20;;;16.02;;
49071;SDS011;74284;52.610;10.236;2024-01-10T11:49:40;31.73;;;17.02;;
49071;SDS011;74284;52.610;10.236;2024-01-10T11:52:05;25.65;;;14.85;;
49071;SDS011;74284;52.610;10.236;2024-01-10T11:54:37;24.15;;;15.05;;
49071;SDS011;74284;52.610;10.236;2024-01-10T11:57:07;33.22;;;18.13;;
49071;SDS011;74284;52.610;10.236;2024-01-10T11:59:59;22.67;;;12.90;;
49071;SDS011;74284;52.610;10.236;2024-01-10T12:02:26;26.40;;;15.13;;
49071;SDS011;74284;52.610;10.236;2024-01-10T12:04:53;29.98;;;14.45;;
49071;SDS011;74284;52.610;10.236;2024-01-10T12:07:19;27.92;;;15.75;;
49071;SDS011;74284;52.610;10.236;2024-01-10T12:09:45;27.08;;;15.63;;
49071;SDS011;74284;52.610;10.236;2024-01-10T12:14:39;35.47;;;16.00;;
49071;SDS011;74284;52.610;10.236;2024-01-10T12:21:58;30.58;;;15.43;;
49071;SDS011;74284;52.610;10.236;2024-01-10T12:24:24;25.42;;;14.80;;
49071;SDS011;74284;52.610;10.236;2024-01-10T12:26:53;29.08;;;16.48;;
49071;SDS011;74284;52.610;10.236;2024-01-10T12:29:19;30.05;;;16.88;;
49071;SDS011;74284;52.610;10.236;2024-01-10T12:34:10;27.20;;;15.23;;
49071;SDS011;74284;52.610;10.236;2024-01-10T12:36:36;30.02;;;16.83;;
49071;SDS011;74284;52.610;10.236;2024-01-10T12:39:02;30.15;;;16.15;;
49071;SDS011;74284;52.610;10.236;2024-01-10T12:41:29;23.88;;;14.50;;
49071;SDS011;74284;52.610;10.236;2024-01-10T12:43:54;30.17;;;16.63;;
49071;SDS011;74284;52.610;10.236;2024-01-10T12:46:21;24.42;;;12.15;;
49071;SDS011;74284;52.610;10.236;2024-01-10T12:49:06;32.65;;;15.70;;
49071;SDS011;74284;52.610;10.236;2024-01-10T12:51:32;27.67;;;15.68;;
49071;SDS011;74284;52.610;10.236;2024-01-10T12:54:01;28.10;;;16.63;;
49071;SDS011;74284;52.610;10.236;2024-01-10T12:56:27;29.45;;;15.98;;
49071;SDS011;74284;52.610;10.236;2024-01-10T12:58:53;28.38;;;15.68;;
49071;SDS011;74284;52.610;10.236;2024-01-10T13:01:22;26.52;;;15.40;;
49071;SDS011;74284;52.610;10.236;2024-01-10T13:03:49;25.85;;;14.82;;
49071;SDS011;74284;52.610;10.236;2024-01-10T13:06:15;31.20;;;16.55;;
49071;SDS011;74284;52.610;10.236;2024-01-10T13:08:42;26.83;;;14.52;;
49071;SDS011;74284;52.610;10.236;2024-01-10T13:11:07;29.17;;;15.00;;
49071;SDS011;74284;52.610;10.236;2024-01-10T13:13:37;23.83;;;14.73;;
49071;SDS011;74284;52.610;10.236;2024-01-10T13:16:02;29.20;;;16.75;;
49071;SDS011;74284;52.610;10.236;2024-01-10T13:18:28;31.80;;;17.42;;
49071;SDS011;74284;52.610;10.236;2024-01-10T13:20:53;28.25;;;14.95;;
49071;SDS011;74284;52.610;10.236;2024-01-10T13:23:19;27.27;;;15.23;;
49071;SDS011;74284;52.610;10.236;2024-01-10T13:25:47;28.05;;;16.52;;
49071;SDS011;74284;52.610;10.236;2024-01-10T13:28:13;31.50;;;16.33;;
49071;SDS011;74284;52.610;10.236;2024-01-10T13:30:39;25.95;;;14.35;;
49071;SDS011;74284;52.610;10.236;2024-01-10T13:33:06;27.30;;;15.48;;
49071;SDS011;74284;52.610;10.236;2024-01-10T13:35:32;26.70;;;14.85;;
49071;SDS011;74284;52.610;10.236;2024-01-10T13:37:58;31.02;;;16.13;;
49071;SDS011;74284;52.610;10.236;2024-01-10T13:40:23;29.95;;;15.70;;
49071;SDS011;74284;52.610;10.236;2024-01-10T13:42:49;26.20;;;14.75;;
49071;SDS011;74284;52.610;10.236;2024-01-10T13:45:15;31.42;;;17.27;;
49071;SDS011;74284;52.610;10.236;2024-01-10T13:47:42;27.00;;;15.55;;
49071;SDS011;74284;52.610;10.236;2024-01-10T13:50:07;26.75;;;15.20;;
49071;SDS011;74284;52.610;10.236;2024-01-10T13:52:33;26.10;;;13.55;;
49071;SDS011;74284;52.610;10.236;2024-01-10T13:54:59;26.88;;;14.25;;
49071;SDS011;74284;52.610;10.236;2024-01-10T13:57:25;31.60;;;16.40;;
49071;SDS011;74284;52.610;10.236;2024-01-10T13:59:50;25.10;;;15.10;;
49071;SDS011;74284;52.610;10.236;2024-01-10T14:02:16;25.35;;;14.77;;
49071;SDS011;74284;52.610;10.236;2024-01-10T14:04:43;25.60;;;15.77;;
49071;SDS011;74284;52.610;10.236;2024-01-10T14:07:09;28.58;;;15.77;;
49071;SDS011;74284;52.610;10.236;2024-01-10T14:09:35;23.13;;;13.38;;
49071;SDS011;74284;52.610;10.236;2024-01-10T14:12:00;26.30;;;14.88;;
49071;SDS011;74284;52.610;10.236;2024-01-10T14:14:25;24.00;;;13.55;;
49071;SDS011;74284;52.610;10.236;2024-01-10T14:16:51;27.10;;;15.23;;
49071;SDS011;74284;52.610;10.236;2024-01-10T14:19:16;26.60;;;16.17;;
49071;SDS011;74284;52.610;10.236;2024-01-10T14:21:44;28.85;;;16.25;;
49071;SDS011;74284;52.610;10.236;2024-01-10T14:24:10;26.63;;;14.52;;
49071;SDS011;74284;52.610;10.236;2024-01-10T14:26:36;30.95;;;15.90;;
49071;SDS011;74284;52.610;10.236;2024-01-10T14:29:01;25.90;;;14.93;;
49071;SDS011;74284;52.610;10.236;2024-01-10T14:31:27;26.85;;;15.05;;
49071;SDS011;74284;52.610;10.236;2024-01-10T14:33:52;31.80;;;17.20;;
49071;SDS011;74284;52.610;10.236;2024-01-10T14:36:18;27.20;;;14.93;;
49071;SDS011;74284;52.610;10.236;2024-01-10T14:38:43;32.28;;;16.13;;
49071;SDS011;74284;52.610;10.236;2024-01-10T14:41:09;34.58;;;18.95;;
49071;SDS011;74284;52.610;10.236;2024-01-10T14:43:38;30.08;;;15.68;;
49071;SDS011;74284;52.610;10.236;2024-01-10T14:46:04;25.05;;;15.60;;
49071;SDS011;74284;52.610;10.236;2024-01-10T14:48:32;30.33;;;16.77;;
49071;SDS011;74284;52.610;10.236;2024-01-10T14:51:00;33.13;;;16.67;;
49071;SDS011;74284;52.610;10.236;2024-01-10T14:53:26;37.03;;;17.95;;
49071;SDS011;74284;52.610;10.236;2024-01-10T14:55:51;37.60;;;18.55;;
49071;SDS011;74284;52.610;10.236;2024-01-10T14:58:17;30.02;;;16.17;;
49071;SDS011;74284;52.610;10.236;2024-01-10T15:00:43;34.10;;;17.67;;
49071;SDS011;74284;52.610;10.236;2024-01-10T15:03:09;33.35;;;17.55;;
49071;SDS011;74284;52.610;10.236;2024-01-10T15:05:34;32.60;;;17.08;;
49071;SDS011;74284;52.610;10.236;2024-01-10T15:08:00;38.03;;;17.33;;
49071;SDS011;74284;52.610;10.236;2024-01-10T15:10:26;33.92;;;18.52;;
49071;SDS011;74284;52.610;10.236;2024-01-10T15:12:52;36.15;;;18.20;;
49071;SDS011;74284;52.610;10.236;2024-01-10T15:15:17;37.53;;;19.05;;
49071;SDS011;74284;52.610;10.236;2024-01-10T15:17:42;40.40;;;19.23;;
49071;SDS011;74284;52.610;10.236;2024-01-10T15:20:08;28.83;;;14.93;;
49071;SDS011;74284;52.610;10.236;2024-01-10T15:22:33;25.55;;;14.68;;
49071;SDS011;74284;52.610;10.236;2024-01-10T15:25:02;31.15;;;16.63;;
49071;SDS011;74284;52.610;10.236;2024-01-10T15:27:28;33.80;;;17.77;;
49071;SDS011;74284;52.610;10.236;2024-01-10T15:29:53;55.87;;;22.90;;
49071;SDS011;74284;52.610;10.236;2024-01-10T15:32:19;54.42;;;22.05;;
49071;SDS011;74284;52.610;10.236;2024-01-10T15:34:45;37.20;;;19.00;;
49071;SDS011;74284;52.610;10.236;2024-01-10T15:37:10;30.15;;;16.40;;
49071;SDS011;74284;52.610;10.236;2024-01-10T15:39:36;26.90;;;16.65;;
49071;SDS011;74284;52.610;10.236;2024-01-10T15:42:03;29.70;;;16.60;;
49071;SDS011;74284;52.610;10.236;2024-01-10T15:44:29;27.70;;;15.52;;
49071;SDS011;74284;52.610;10.236;2024-01-10T15:46:54;31.40;;;17.67;;
49071;SDS011;74284;52.610;10.236;2024-01-10T15:49:22;26.77;;;15.50;;
49071;SDS011;74284;52.610;10.236;2024-01-10T15:51:48;29.63;;;16.92;;
49071;SDS011;74284;52.610;10.236;2024-01-10T15:54:13;29.15;;;17.27;;
49071;SDS011;74284;52.610;10.236;2024-01-10T15:56:39;30.15;;;17.10;;
49071;SDS011;74284;52.610;10.236;2024-01-10T15:59:06;29.73;;;18.25;;
49071;SDS011;74284;52.610;10.236;2024-01-10T16:01:32;32.42;;;19.00;;
49071;SDS011;74284;52.610;10.236;2024-01-10T16:06:23;36.33;;;19.67;;
49071;SDS011;74284;52.610;10.236;2024-01-10T16:08:48;33.95;;;18.63;;
49071;SDS011;74284;52.610;10.236;2024-01-10T16:11:14;35.75;;;19.40;;
49071;SDS011;74284;52.610;10.236;2024-01-10T16:13:39;33.17;;;19.33;;
49071;SDS011;74284;52.610;10.236;2024-01-10T16:16:05;33.92;;;20.83;;
49071;SDS011;74284;52.610;10.236;2024-01-10T16:18:33;34.90;;;20.40;;
49071;SDS011;74284;52.610;10.236;2024-01-10T16:20:59;36.15;;;20.45;;
49071;SDS011;74284;52.610;10.236;2024-01-10T16:23:24;34.60;;;19.67;;
49071;SDS011;74284;52.610;10.236;2024-01-10T16:25:50;42.88;;;21.77;;
49071;SDS011;74284;52.610;10.236;2024-01-10T16:28:15;58.50;;;32.55;;
49071;SDS011;74284;52.610;10.236;2024-01-10T16:30:40;45.20;;;22.17;;
49071;SDS011;74284;52.610;10.236;2024-01-10T16:33:06;31.80;;;17.30;;
49071;SDS011;74284;52.610;10.236;2024-01-10T16:35:33;38.55;;;21.52;;
49071;SDS011;74284;52.610;10.236;2024-01-10T16:37:59;34.67;;;18.83;;
49071;SDS011;74284;52.610;10.236;2024-01-10T16:40:24;35.95;;;19.30;;
49071;SDS011;74284;52.610;10.236;2024-01-10T16:42:49;35.30;;;19.00;;
49071;SDS011;74284;52.610;10.236;2024-01-10T16:45:14;32.58;;;17.88;;
49071;SDS011;74284;52.610;10.236;2024-01-10T16:47:40;33.08;;;17.40;;
49071;SDS011;74284;52.610;10.236;2024-01-10T16:50:05;36.08;;;18.80;;
49071;SDS011;74284;52.610;10.236;2024-01-10T16:52:31;27.50;;;16.02;;
49071;SDS011;74284;52.610;10.236;2024-01-10T16:54:56;31.45;;;18.35;;
49071;SDS011;74284;52.610;10.236;2024-01-10T16:57:22;28.98;;;17.13;;
49071;SDS011;74284;52.610;10.236;2024-01-10T16:59:47;30.48;;;18.90;;
49071;SDS011;74284;52.610;10.236;2024-01-10T17:02:13;31.25;;;18.58;;
49071;SDS011;74284;52.610;10.236;2024-01-10T17:04:38;30.02;;;17.83;;
49071;SDS011;74284;52.610;10.236;2024-01-10T17:07:04;43.17;;;21.33;;
49071;SDS011;74284;52.610;10.236;2024-01-10T17:09:29;40.45;;;21.10;;
49071;SDS011;74284;52.610;10.236;2024-01-10T17:11:55;33.77;;;18.67;;
49071;SDS011;74284;52.610;10.236;2024-01-10T17:14:20;35.22;;;19.15;;
49071;SDS011;74284;52.610;10.236;2024-01-10T17:16:45;36.03;;;17.92;;
49071;SDS011;74284;52.610;10.236;2024-01-10T17:19:11;34.10;;;18.45;;